Terminal Aerodrome Forecast
Issued by NWS

Home | Current Version | Previous Version | Text Only | Print | Product List | Glossary On
Versions: 1 2 3 4 5 6 7 8 9 10 11 12 13 14 15 16
000
FTUS45 KFGZ 192135 AAC
TAFSEZ
TAF AMD
KSEZ 192135Z 1922/2018 27020G35KT P6SM -RA SCT010 OVC020
     FM192300 24016G26KT P6SM SCT020 BKN040
     FM200200 24006KT P6SM SCT040=

USA.gov is the U.S. government's official web portal to all federal, state and local government web resources and services.